地図

経路データ

SID SEASON NUMBER BASIN SUBBASIN NAME ISO_TIME NATURE LAT LON WMO_WIND WMO_PRES WMO_AGENCY TRACK_TYPE DIST2LAND LANDFALL IFLAG USA_AGENCY USA_ATCF_ID USA_LAT USA_LON USA_RECORD USA_STATUS USA_WIND USA_PRES USA_SSHS USA_R34_NE USA_R34_SE USA_R34_SW USA_R34_NW USA_R50_NE USA_R50_SE USA_R50_SW USA_R50_NW USA_R64_NE USA_R64_SE USA_R64_SW USA_R64_NW USA_POCI USA_ROCI USA_RMW USA_EYE TOKYO_LAT TOKYO_LON TOKYO_GRADE TOKYO_WIND TOKYO_PRES TOKYO_R50_DIR TOKYO_R50_LONG TOKYO_R50_SHORT TOKYO_R30_DIR TOKYO_R30_LONG TOKYO_R30_SHORT TOKYO_LAND CMA_LAT CMA_LON CMA_CAT CMA_WIND CMA_PRES HKO_LAT HKO_LON HKO_CAT HKO_WIND HKO_PRES NEWDELHI_LAT NEWDELHI_LON NEWDELHI_GRADE NEWDELHI_WIND NEWDELHI_PRES NEWDELHI_CI NEWDELHI_DP NEWDELHI_POCI REUNION_LAT REUNION_LON REUNION_TYPE REUNION_WIND REUNION_PRES REUNION_TNUM REUNION_CI REUNION_RMW REUNION_R34_NE REUNION_R34_SE REUNION_R34_SW REUNION_R34_NW REUNION_R50_NE REUNION_R50_SE REUNION_R50_SW REUNION_R50_NW REUNION_R64_NE REUNION_R64_SE REUNION_R64_SW REUNION_R64_NW BOM_LAT BOM_LON BOM_TYPE BOM_WIND BOM_PRES BOM_TNUM BOM_CI BOM_RMW BOM_R34_NE BOM_R34_SE BOM_R34_SW BOM_R34_NW BOM_R50_NE BOM_R50_SE BOM_R50_SW BOM_R50_NW BOM_R64_NE BOM_R64_SE BOM_R64_SW BOM_R64_NW BOM_ROCI BOM_POCI BOM_EYE BOM_POS_METHOD BOM_PRES_METHOD NADI_LAT NADI_LON NADI_CAT NADI_WIND NADI_PRES WELLINGTON_LAT WELLINGTON_LON WELLINGTON_WIND WELLINGTON_PRES DS824_LAT DS824_LON DS824_STAGE DS824_WIND DS824_PRES TD9636_LAT TD9636_LON TD9636_STAGE TD9636_WIND TD9636_PRES TD9635_LAT TD9635_LON TD9635_WIND TD9635_PRES TD9635_ROCI NEUMANN_LAT NEUMANN_LON NEUMANN_CLASS NEUMANN_WIND NEUMANN_PRES MLC_LAT MLC_LON MLC_CLASS MLC_WIND MLC_PRES USA_GUST BOM_GUST BOM_GUST_PER REUNION_GUST REUNION_GUST_PER USA_SEAHGT USA_SEARAD_NE USA_SEARAD_SE USA_SEARAD_SW USA_SEARAD_NW STORM_SPEED STORM_DIR
1997021S16172 1997 8 SP MM FREDA 1997-01-20 12:00:00 TS -15.9000 172.000 main 451 449 O___________O_ jtwc_sh SH221997 -15.9000 172.000 15 -1 -15.9000 172.000 TC 15 2 163
1997021S16172 1997 8 SP MM FREDA 1997-01-20 15:00:00 TS -16.0000 172.048 main 449 449 P___________P_ SH221997 -16.0000 172.048 15 -1 -16.0000 172.048 TC 15 2 153
1997021S16172 1997 8 SP MM FREDA 1997-01-20 18:00:00 TS -16.1000 172.100 main 459 459 O___________O_ jtwc_sh SH221997 -16.1000 172.100 15 -1 -16.1000 172.100 TC 15 2 152
1997021S16172 1997 8 SP MM FREDA 1997-01-20 21:00:00 TS -16.2000 172.158 main 469 469 P___________P_ SH221997 -16.2000 172.158 15 -1 -16.2000 172.158 TC 15 2 153
1997021S16172 1997 8 SP MM FREDA 1997-01-21 00:00:00 TS -16.3000 172.200 main 469 469 O___________O_ jtwc_sh SH221997 -16.3000 172.200 15 -1 -16.3000 172.200 TC 15 2 167
1997021S16172 1997 8 SP MM FREDA 1997-01-21 03:00:00 TS -16.3925 172.208 main 469 469 P___________P_ SH221997 -16.3925 172.208 15 -1 -16.3925 172.208 TC 15 2 172
1997021S16172 1997 8 SP MM FREDA 1997-01-21 06:00:00 TS -16.5000 172.200 main 469 468 O___________O_ jtwc_sh SH221997 -16.5000 172.200 15 -1 -16.5000 172.200 TC 15 3 0
1997021S16172 1997 8 SP MM FREDA 1997-01-21 09:00:00 TS -16.6500 172.200 main 468 469 P___________P_ SH221997 -16.6500 172.200 15 -1 -16.6500 172.200 TC 15 3 0
1997021S16172 1997 8 SP MM FREDA 1997-01-21 12:00:00 TS -16.8000 172.200 main 469 469 O___________O_ jtwc_sh SH221997 -16.8000 172.200 15 -1 -16.8000 172.200 TC 15 3 178
1997021S16172 1997 8 SP MM FREDA 1997-01-21 15:00:00 TS -16.9000 172.200 main 469 469 P___________P_ SH221997 -16.9000 172.200 15 -1 -16.9000 172.200 TC 15 2 172
1997021S16172 1997 8 SP MM FREDA 1997-01-21 18:00:00 TS -17.0000 172.200 main 470 470 O___________O_ jtwc_sh SH221997 -17.0000 172.200 15 -1 -17.0000 172.200 TC 15 2 174
1997021S16172 1997 8 SP MM FREDA 1997-01-21 21:00:00 TS -17.1425 172.207 main 471 471 P___________P_ SH221997 -17.1425 172.207 17 -1 -17.1425 172.207 TC 17 3 0
1997021S16172 1997 8 SP MM FREDA 1997-01-22 00:00:00 TS -17.3000 172.200 main 474 474 O___________O_ jtwc_sh SH221997 -17.3000 172.200 20 -1 -17.3000 172.200 TC 20 3 186
1997021S16172 1997 8 SP MM FREDA 1997-01-22 03:00:00 TS -17.4500 172.165 main 476 468 P___________P_ SH221997 -17.4500 172.165 20 -1 -17.4500 172.165 TC 20 3 197
1997021S16172 1997 8 SP MM FREDA 1997-01-22 06:00:00 TS -17.6000 172.100 main 470 463 O___________O_ jtwc_sh SH221997 -17.6000 172.100 20 -1 -17.6000 172.100 TC 20 3 205
1997021S16172 1997 8 SP MM FREDA 1997-01-22 09:00:00 TS -17.7575 172.008 main 465 455 P___________P_ SH221997 -17.7575 172.008 20 -1 -17.7575 172.008 TC 20 4 212
1997021S16172 1997 8 SP MM FREDA 1997-01-22 12:00:00 TS -17.9000 171.900 main 459 452 O___________O_ jtwc_sh SH221997 -17.9000 171.900 20 -1 -17.9000 171.900 TC 20 3 218
1997021S16172 1997 8 SP MM FREDA 1997-01-22 15:00:00 TS -18.0075 171.800 main 452 446 P___________P_ SH221997 -18.0075 171.800 20 -1 -18.0075 171.800 TC 20 3 224
1997021S16172 1997 8 SP MM FREDA 1997-01-22 18:00:00 TS -18.1000 171.700 main 446 436 O___________O_ jtwc_sh SH221997 -18.1000 171.700 20 -1 -18.1000 171.700 TC 20 3 225
1997021S16172 1997 8 SP MM FREDA 1997-01-22 21:00:00 TS -18.2000 171.600 main 441 436 P___________P_ SH221997 -18.2000 171.600 20 -1 -18.2000 171.600 TC 20 3 224
1997021S16172 1997 8 SP MM FREDA 1997-01-23 00:00:00 TS -18.3000 171.500 main 436 426 O___________O_ jtwc_sh SH221997 -18.3000 171.500 20 -1 -18.3000 171.500 TC 20 3 225
1997021S16172 1997 8 SP MM FREDA 1997-01-23 03:00:00 TS -18.3925 171.400 main 431 422 P___________P_ SH221997 -18.3925 171.400 22 -1 -18.3925 171.400 TC 22 3 224
1997021S16172 1997 8 SP MM FREDA 1997-01-23 06:00:00 TS -18.5000 171.300 main 427 424 O___________O_ jtwc_sh SH221997 -18.5000 171.300 25 -1 -18.5000 171.300 TC 25 3 218
1997021S16172 1997 8 SP MM FREDA 1997-01-23 09:00:00 TS -18.6350 171.200 main 424 421 P___________P_ SH221997 -18.6350 171.200 25 -1 -18.6350 171.200 TC 25 4 212
1997021S16172 1997 8 SP MM FREDA 1997-01-23 12:00:00 TS -18.8000 171.100 main 427 425 O___________O_ jtwc_sh SH221997 -18.8000 171.100 25 -1 -18.8000 171.100 TC 25 4 210
1997021S16172 1997 8 SP MM FREDA 1997-01-23 15:00:00 TS -18.9925 170.985 main 432 431 P___________P_ SH221997 -18.9925 170.985 25 -1 -18.9925 170.985 TC 25 4 205
1997021S16172 1997 8 SP MM FREDA 1997-01-23 18:00:00 TS -19.2000 170.900 main 438 438 O___________O_ jtwc_sh SH221997 -19.2000 170.900 25 -1 -19.2000 170.900 TC 25 4 194
1997021S16172 1997 8 SP MM FREDA 1997-01-23 21:00:00 TS -19.4150 170.877 main 453 453 P___________P_ SH221997 -19.4150 170.877 25 -1 -19.4150 170.877 TC 25 5 192
1997021S16172 1997 8 SP MM FREDA 1997-01-24 00:00:00 TS -19.6444 170.800 main 461 461 O_______O___O_ jtwc_sh SH221997 -19.6000 170.900 25 -1 -20.0000 170.000 25 1000 -19.6000 170.900 TC 25 4 191
1997021S16172 1997 8 SP MM FREDA 1997-01-24 03:00:00 TS -19.7859 170.806 main 477 470 P_______P___P_ SH221997 -19.7225 170.942 25 -1 -20.0395 170.258 25 1000 -19.7225 170.942 TC 25 2 163
1997021S16172 1997 8 SP MM FREDA 1997-01-24 06:00:00 TS -19.8772 170.867 main 479 479 O_______P___O_ jtwc_sh SH221997 -19.8000 171.000 25 -1 -20.0830 170.513 25 1000 -19.8000 171.000 TC 25 2 140
1997021S16172 1997 8 SP MM FREDA 1997-01-24 09:00:00 TS -19.9500 170.949 main 479 479 P_______P___P_ SH221997 -19.8575 171.043 25 -1 -20.1350 170.761 25 1000 -19.8575 171.043 TC 25 2 123
1997021S16172 1997 8 SP MM FREDA 1997-01-24 12:00:00 TS -20.0000 171.067 main 491 491 O_______O___O_ jtwc_sh SH221997 -19.9000 171.100 25 -1 -20.2000 171.000 25 1000 -19.9000 171.100 TC 25 3 114
1997021S16172 1997 8 SP MM FREDA 1997-01-24 15:00:00 TS -20.0549 171.195 main 494 494 P_______P___P_ SH221997 -19.9425 171.178 25 -1 -20.2797 171.230 25 1000 -19.9425 171.178 TC 25 3 114
1997021S16172 1997 8 SP MM FREDA 1997-01-24 18:00:00 TS -20.1215 171.354 main 513 507 O_______P___O_ jtwc_sh SH221997 -20.0000 171.300 25 -1 -20.3645 171.462 25 1000 -20.0000 171.300 TC 25 4 115
1997021S16172 1997 8 SP MM FREDA 1997-01-24 21:00:00 TS -20.2090 171.546 main 517 517 P_______P___P_ SH221997 -20.0924 171.463 25 -1 -20.4421 171.714 25 1000 -20.0924 171.463 TC 25 5 113
1997021S16172 1997 8 SP MM FREDA 1997-01-25 00:00:00 TS -20.3000 171.800 main 540 540 O_______O___O_ jtwc_sh SH221997 -20.2000 171.700 25 -1 -20.5000 172.000 25 1000 -20.2000 171.700 TC 25 6 107
1997021S16172 1997 8 SP MM FREDA 1997-01-25 03:00:00 TS -20.3752 172.130 main 565 561 P_______P___P_ SH221997 -20.3000 172.027 25 -1 -20.5256 172.335 25 1000 -20.3000 172.027 TC 25 7 102
1997021S16172 1997 8 SP MM FREDA 1997-01-25 06:00:00 TS -20.4433 172.502 main 561 539 O_______P___O_ jtwc_sh SH221997 -20.4000 172.400 25 -1 -20.5300 172.705 25 1000 -20.4000 172.400 TC 25 7 101
1997021S16172 1997 8 SP MM FREDA 1997-01-25 09:00:00 TS -20.5064 172.866 main 530 510 P_______P___P_ SH221997 -20.4999 172.750 25 -1 -20.5193 173.098 25 1000 -20.4999 172.750 TC 25 7 100
1997021S16172 1997 8 SP MM FREDA 1997-01-25 12:00:00 TS -20.5667 173.233 main 510 476 O_______O___O_ jtwc_sh SH221997 -20.6000 173.100 25 -1 -20.5000 173.500 25 1000 -20.6000 173.100 TC 25 7 97
1997021S16172 1997 8 SP MM FREDA 1997-01-25 15:00:00 TS -20.5958 173.602 main 476 444 P_______P___P_ SH221997 -20.6999 173.450 27 -1 -20.3876 173.905 25 1000 -20.6999 173.450 TC 27 7 95
1997021S16172 1997 8 SP MM FREDA 1997-01-25 18:00:00 TS -20.6276 173.972 main 444 428 O_______P___O_ jtwc_sh SH221997 -20.8000 173.800 30 -1 -20.2829 174.315 25 1000 -20.8000 173.800 TC 30 7 97
1997021S16172 1997 8 SP MM FREDA 1997-01-25 21:00:00 TS -20.6772 174.339 main 428 398 P_______P___P_ SH221997 -20.8849 174.150 32 -1 -20.2618 174.717 25 1000 -20.8849 174.150 TC 32 7 101
1997021S16172 1997 8 SP MM FREDA 1997-01-26 00:00:00 TS -20.7692 174.731 25 1000 nadi main 406 393 O_______O___O_ jtwc_sh SH221997 -21.0000 174.500 35 0 -20.4000 175.100 25 1000 -20.4000 175.100 25 1000 -21.0000 174.500 TC 35 8 114
1997021S16172 1997 8 SP MM FREDA 1997-01-26 03:00:00 TS -21.0071 175.135 main 397 391 P______IP___P_ SH221997 -21.1850 174.857 40 0 -20.7928 175.509 27 999 -20.7585 175.503 27 999 -21.1850 174.857 TC 40 9 127
1997021S16172 1997 8 SP MM FREDA 1997-01-26 06:00:00 TS -21.3067 175.480 30 998 nadi main 404 404 O_______O___O_ jtwc_sh SH221997 -21.4000 175.200 45 0 -21.2000 175.800 30 998 -21.2000 175.800 30 998 -21.4000 175.200 TC 45 8 138
1997021S16172 1997 8 SP MM FREDA 1997-01-26 09:00:00 TS -21.6037 175.713 main 425 425 P______IP___P_ SH221997 -21.5850 175.530 45 0 -21.6224 175.895 32 996 -21.6224 175.895 32 996 -21.5850 175.530 TC 45 7 150
1997021S16172 1997 8 SP MM FREDA 1997-01-26 12:00:00 TS -21.9000 175.850 35 995 nadi main 452 449 O_______O___O_ jtwc_sh SH221997 -21.8000 175.800 45 0 -22.0000 175.900 35 995 -22.0000 175.900 35 995 -21.8000 175.800 TC 45 6 158
1997021S16172 1997 8 SP MM FREDA 1997-01-26 15:00:00 TS -22.1674 175.958 main 477 477 P______IP___P_ SH221997 -22.0774 175.980 45 0 -22.2575 175.935 37 993 -22.2575 175.935 37 993 -22.0774 175.980 TC 45 6 161
1997021S16172 1997 8 SP MM FREDA 1997-01-26 18:00:00 TS -22.4500 176.050 40 992 nadi main 495 505 O_______O___O_ jtwc_sh SH221997 -22.4000 176.100 45 0 -22.5000 176.000 40 992 -22.5000 176.000 40 992 -22.4000 176.100 TC 45 7 162
1997021S16172 1997 8 SP MM FREDA 1997-01-26 21:00:00 TS -22.7963 176.179 main 533 533 P______IP___P_ SH221997 -22.7425 176.208 50 0 -22.8501 176.150 42 989 -22.8501 176.150 42 989 -22.7425 176.208 TC 50 7 162
1997021S16172 1997 8 SP MM FREDA 1997-01-27 00:00:00 TS -23.1500 176.300 45 987 nadi main 561 572 O_______O___O_ jtwc_sh SH221997 -23.1000 176.300 55 0 -23.2000 176.300 45 987 -23.2000 176.300 45 987 -23.1000 176.300 TC 55 7 165
1997021S16172 1997 8 SP MM FREDA 1997-01-27 03:00:00 TS -23.4650 176.375 main 601 601 P______IP___P_ SH221997 -23.4500 176.400 60 0 -23.4799 176.350 47 986 -23.4799 176.350 47 986 -23.4500 176.400 TC 60 6 167
1997021S16172 1997 8 SP MM FREDA 1997-01-27 06:00:00 TS -23.7500 176.450 50 985 nadi main 621 631 O_______O___O_ jtwc_sh SH221997 -23.8000 176.500 65 1 -23.7000 176.400 50 985 -23.7000 176.400 50 985 -23.8000 176.500 TC 65 6 162
1997021S16172 1997 8 SP MM FREDA 1997-01-27 09:00:00 TS -23.9887 176.564 main 651 651 P______IP___P_ SH221997 -24.1575 176.593 65 1 -23.8200 176.535 50 985 -23.8200 176.535 50 985 -24.1575 176.593 TC 65 6 155
1997021S16172 1997 8 SP MM FREDA 1997-01-27 12:00:00 TS -24.2500 176.700 50 985 nadi main 671 682 O_______O___O_ jtwc_sh SH221997 -24.5000 176.700 65 1 -24.0000 176.700 50 985 -24.0000 176.700 50 985 -24.5000 176.700 TC 65 7 159
1997021S16172 1997 8 SP MM FREDA 1997-01-27 15:00:00 TS -24.6174 176.831 main 713 713 P______IP___P_ SH221997 -24.8075 176.843 65 1 -24.4274 176.820 52 982 -24.4274 176.820 52 982 -24.8075 176.843 TC 65 8 160
1997021S16172 1997 8 SP MM FREDA 1997-01-27 18:00:00 TS -25.0000 177.000 55 980 nadi main 754 754 O_______O___O_ jtwc_sh SH221997 -25.1000 177.000 65 1 -24.9000 177.000 55 980 -24.9000 177.000 55 980 -25.1000 177.000 TC 65 8 152
1997021S16172 1997 8 SP MM FREDA 1997-01-27 21:00:00 TS -25.3339 177.246 main 785 785 P______IP___P_ SH221997 -25.4150 177.150 65 1 -25.2527 177.342 55 980 -25.2527 177.342 55 980 -25.4150 177.150 TC 65 8 143
1997021S16172 1997 8 SP MM FREDA 1997-01-28 00:00:00 TS -25.6000 177.500 55 980 wellington main 817 817 O_______O___O_ jtwc_sh SH221997 -25.7000 177.300 65 1 -25.5000 177.700 55 980 -25.5000 177.700 55 980 -25.7000 177.300 TC 65 6 138
1997021S16172 1997 8 SP MM FREDA 1997-01-28 03:00:00 TS -25.7761 177.683 main 838 838 P______IP___P_ SH221997 -25.9300 177.450 65 1 -25.6223 177.915 55 980 -25.6223 177.915 55 980 -25.9300 177.450 TC 65 4 134
1997021S16172 1997 8 SP MM FREDA 1997-01-28 06:00:00 TS -25.9000 177.850 55 980 wellington main 849 849 O_______O___O_ jtwc_sh SH221997 -26.1000 177.600 65 1 -25.7000 178.100 55 980 -25.7000 178.100 55 980 -26.1000 177.600 TC 65 4 129
1997021S16172 1997 8 SP MM FREDA 1997-01-28 09:00:00 TS -26.0362 178.046 main 860 860 P______IP___P_ SH221997 -26.2225 177.750 65 1 -25.8500 178.342 55 980 -25.8500 178.342 55 980 -26.2225 177.750 TC 65 4 125
1997021S16172 1997 8 SP MM FREDA 1997-01-28 12:00:00 TS -26.1500 178.250 55 980 wellington main 872 883 O_______O___O_ jtwc_sh SH221997 -26.3000 177.900 65 1 -26.0000 178.600 55 980 -26.0000 178.600 55 980 -26.3000 177.900 TC 65 4 118
1997021S16172 1997 8 SP MM FREDA 1997-01-28 15:00:00 TS -26.2287 178.446 main 883 883 P______IP___P_ SH221997 -26.3574 178.035 65 1 -26.1000 178.858 52 982 -26.1000 178.858 52 982 -26.3574 178.035 TC 65 4 113
1997021S16172 1997 8 SP MM FREDA 1997-01-28 18:00:00 TS -26.3000 178.650 50 985 wellington main 895 895 O_______O___O_ jtwc_sh SH221997 -26.4000 178.200 65 1 -26.2000 179.100 50 985 -26.2000 179.100 50 985 -26.4000 178.200 TC 65 4 115
1997021S16172 1997 8 SP MM FREDA 1997-01-28 21:00:00 TS -26.3999 178.856 main 908 908 P______IP___P_ SH221997 -26.4574 178.412 65 1 -26.3424 179.300 50 985 -26.3424 179.300 50 985 -26.4574 178.412 TC 65 5 116
1997021S16172 1997 8 SP MM FREDA 1997-01-29 00:00:00 TS -26.5000 179.100 50 985 wellington main 921 921 O_______O___O_ jtwc_sh SH221997 -26.5000 178.700 65 1 -26.5000 179.500 50 985 -26.5000 179.500 50 985 -26.5000 178.700 TC 65 5 109
1997021S16172 1997 8 SP MM FREDA 1997-01-29 03:00:00 TS -26.5712 179.406 main 935 935 P______IP___P_ SH221997 -26.4998 179.055 62 0 -26.6426 179.758 50 986 -26.6426 179.758 50 986 -26.4998 179.055 TC 62 6 104
1997021S16172 1997 8 SP MM FREDA 1997-01-29 06:00:00 TS -26.6500 179.750 50 988 wellington main 942 953 O_______O___O_ jtwc_sh SH221997 -26.5000 179.500 60 0 -26.8000 180.000 50 988 -26.8000 180.000 50 988 -26.5000 179.500 TC 60 6 106
1997021S16172 1997 8 SP MM FREDA 1997-01-29 09:00:00 TS -26.7450 180.093 main 959 959 P______IP___P_ SH221997 -26.5053 -179.950 60 0 -26.9848 -179.865 50 988 -26.9848 -179.865 50 988 -26.5053 -179.950 TC 60 7 112
1997021S16172 1997 8 SP MM FREDA 1997-01-29 12:00:00 TS -26.9000 180.450 50 988 wellington main 989 989 O_______O___O_ jtwc_sh SH221997 -26.6000 -179.400 60 0 -27.2000 -179.700 50 988 -27.2000 -179.700 50 988 -26.6000 -179.400 TC 60 8 120
1997021S16172 1997 8 SP MM FREDA 1997-01-29 15:00:00 TS -27.1451 180.858 main 1021 1021 P______IP___P_ SH221997 -26.8625 -178.926 60 0 -27.4277 -179.358 50 987 -27.4277 -179.358 52 987 -26.8625 -178.926 TC 60 9 129
1997021S16172 1997 8 SP MM FREDA 1997-01-29 18:00:00 TS -27.4500 181.200 55 986 wellington main 1062 1072 O_______O___O_ jtwc_sh SH221997 -27.2000 -178.600 60 0 -27.7000 -179.000 50 986 -27.7000 -179.000 55 986 -27.2000 -178.600 TC 60 8 144
1997021S16172 1997 8 SP MM FREDA 1997-01-29 21:00:00 TS -27.7899 181.385 main 1072 1045 P______IP___P_ SH221997 -27.5148 -178.482 57 0 -28.0649 -178.748 50 985 -28.0649 -178.748 57 985 -27.5148 -178.482 TC 57 7 161
1997021S16172 1997 8 SP MM FREDA 1997-01-30 00:00:00 TS -28.1000 181.450 60 984 wellington main 1045 1034 O_______O___O_ jtwc_sh SH221997 -27.8000 -178.500 55 0 -28.4000 -178.600 50 984 -28.4000 -178.600 60 984 -27.8000 -178.500 TC 55 5 173
1997021S16172 1997 8 SP MM FREDA 1997-01-30 03:00:00 TS -28.3050 181.463 main 1034 1019 P______IP___P_ SH221997 -28.0300 -178.527 55 0 -28.5799 -178.547 52 983 -28.5799 -178.547 60 983 -28.0300 -178.527 TC 55 4 186
1997021S16172 1997 8 SP MM FREDA 1997-01-30 06:00:00 TS -28.4500 181.400 60 982 wellington main 1010 995 O_______O___O_ jtwc_sh SH221997 -28.2000 -178.600 55 0 -28.7000 -178.600 55 982 -28.7000 -178.600 60 982 -28.2000 -178.600 TC 55 3 207
1997021S16172 1997 8 SP MM FREDA 1997-01-30 09:00:00 TS -28.5938 181.294 main 995 981 P______IP___P_ SH221997 -28.3225 -178.685 55 0 -28.8650 -178.727 55 981 -28.8650 -178.727 60 981 -28.3225 -178.685 TC 55 3 221
1997021S16172 1997 8 SP MM FREDA 1997-01-30 12:00:00 TS -28.7000 181.150 60 980 wellington main 981 960 O_______O___O_ jtwc_sh SH221997 -28.4000 -178.800 55 0 -29.0000 -178.900 55 980 -29.0000 -178.900 60 980 -28.4000 -178.800 TC 55 3 236
1997021S16172 1997 8 SP MM FREDA 1997-01-30 15:00:00 TS -28.7650 181.000 main 960 954 P______IP___P_ SH221997 -28.4650 -178.950 55 0 -29.0650 -179.050 52 982 -29.0650 -179.050 60 982 -28.4650 -178.950 TC 55 3 249
1997021S16172 1997 8 SP MM FREDA 1997-01-30 18:00:00 TS -28.8000 180.850 60 984 wellington main 954 941 O_______O___O_ jtwc_sh SH221997 -28.5000 -179.100 55 0 -29.1000 -179.200 50 984 -29.1000 -179.200 60 984 -28.5000 -179.100 TC 55 3 253
1997021S16172 1997 8 SP MM FREDA 1997-01-30 21:00:00 TS -28.8362 180.725 main 941 927 P______IP___P_ SH221997 -28.5000 -179.215 52 0 -29.1724 -179.335 50 984 -29.1724 -179.335 60 984 -28.5000 -179.215 TC 52 2 257
1997021S16172 1997 8 SP MM FREDA 1997-01-31 00:00:00 TS -28.8500 180.600 60 985 wellington main 935 924 O_______O___O_ jtwc_sh SH221997 -28.5000 -179.300 50 0 -29.2000 -179.500 50 985 -29.2000 -179.500 60 985 -28.5000 -179.300 TC 50 3 271
1997021S16172 1997 8 SP MM FREDA 1997-01-31 03:00:00 TS -28.8326 180.416 main 924 918 P______IP___P_ SH221997 -28.5425 -179.380 50 0 -29.1227 -179.788 50 985 -29.1227 -179.788 57 985 -28.5425 -179.380 TC 50 3 281
1997021S16172 1997 8 SP MM FREDA 1997-01-31 06:00:00 TS -28.8000 180.300 55 985 wellington main 918 918 O_______O___O_ jtwc_sh SH221997 -28.6000 -179.400 50 0 -29.0000 180.000 50 985 -29.0000 180.000 55 985 -28.6000 -179.400 TC 50 1 321
1997021S16172 1997 8 SP MM FREDA 1997-01-31 09:00:00 TS -28.7637 180.351 main 924 924 P______IP___P_ SH221997 -28.6425 -179.330 50 0 -28.8849 -179.967 50 985 -28.8849 -179.967 55 985 -28.6425 -179.330 TC 50 2 74
1997021S16172 1997 8 SP MM FREDA 1997-01-31 12:00:00 TS -28.7500 180.500 55 986 wellington main 938 930 O_______O___O_ jtwc_sh SH221997 -28.7000 -179.200 50 0 -28.8000 -179.800 50 986 -28.8000 -179.800 55 986 -28.7000 -179.200 TC 50 3 94
1997021S16172 1997 8 SP MM FREDA 1997-01-31 15:00:00 TS -28.7813 180.660 main 941 941 P______IP___P_ SH221997 -28.7925 -179.065 47 0 -28.7700 -179.615 50 986 -28.7700 -179.615 52 986 -28.7925 -179.065 TC 47 3 108
1997021S16172 1997 8 SP MM FREDA 1997-01-31 18:00:00 TS -28.8500 180.850 50 986 wellington main 954 945 O_______O___O_ jtwc_sh SH221997 -28.9000 -178.900 45 0 -28.8000 -179.400 50 986 -28.8000 -179.400 50 986 -28.9000 -178.900 TC 45 3 114
1997021S16172 1997 8 SP MM FREDA 1997-01-31 21:00:00 TS -28.9199 181.024 main 951 949 P______IP___P_ SH221997 -28.9849 -178.722 42 0 -28.8548 -179.230 47 986 -28.8548 -179.230 47 986 -28.9849 -178.722 TC 42 4 120
1997021S16172 1997 8 SP MM FREDA 1997-02-01 00:00:00 TS -29.0500 181.250 45 987 wellington main 961 951 O_______O___O_ jtwc_sh SH221997 -29.1000 -178.500 40 0 -29.0000 -179.000 45 987 -29.0000 -179.000 45 987 -29.1000 -178.500 TC 40 6 126
1997021S16172 1997 8 SP MM FREDA 1997-02-01 03:00:00 TS -29.2586 181.552 main 956 954 P______IP___P_ SH221997 -29.2698 -178.237 40 0 -29.2473 -178.660 42 987 -29.2473 -178.660 42 987 -29.2698 -178.237 TC 40 8 129
1997021S16172 1997 8 SP MM FREDA 1997-02-01 06:00:00 TS -29.5500 181.950 40 988 wellington main 965 937 O_______O___O_ jtwc_sh SH221997 -29.5000 -177.900 40 0 -29.6000 -178.200 40 988 -29.6000 -178.200 40 988 -29.5000 -177.900 TC 40 10 128
1997021S16172 1997 8 SP MM FREDA 1997-02-01 09:00:00 TS -29.8956 182.501 main 940 918 P______IP___P_ SH221997 -29.7554 -177.435 37 0 -30.0358 -177.564 37 989 -30.0358 -177.564 35 989 -29.7554 -177.435 TC 37 12 130
1997021S16172 1997 8 SP MM FREDA 1997-02-01 12:00:00 TS -30.3000 183.000 30 990 wellington main 918 886 O_______O___O_ jtwc_sh SH221997 -30.1000 -177.000 35 0 -30.5000 -177.000 34 990 -30.5000 -177.000 30 990 -30.1000 -177.000 TC 35 10 143
1997021S16172 1997 8 SP MM FREDA 1997-02-01 15:00:00 TS -30.7309 183.232 main 886 842 P______IP___P_ SH221997 -30.5548 -176.747 35 0 -30.9070 -176.789 991 -30.9070 -176.789 30 991 -30.5548 -176.747 TC 35 10 162
1997021S16172 1997 8 SP MM FREDA 1997-02-01 18:00:00 TS -31.2000 183.350 30 992 wellington main 846 804 O_______O___O_ jtwc_sh SH221997 -31.1000 -176.600 35 0 -31.3000 -176.700 -1 992 -31.3000 -176.700 30 992 -31.1000 -176.600 TC 35 10 167
1997021S16172 1997 8 SP MM FREDA 1997-02-01 21:00:00 TS -31.6924 183.489 main 804 762 P______IP___P_ SH221997 -31.6923 -176.521 35 0 -31.6925 -176.500 -1 992 -31.6925 -176.500 30 992 -31.6923 -176.521 TC 35 10 166
1997021S16172 1997 8 SP MM FREDA 1997-02-02 00:00:00 TS -32.2000 183.650 30 992 wellington main 762 735 O_______O___O_ jtwc_sh SH221997 -32.3000 -176.400 35 0 -32.1000 -176.300 -1 992 -32.1000 -176.300 30 992 -32.3000 -176.400 TC 35 11 162
1997021S16172 1997 8 SP MM FREDA 1997-02-02 03:00:00 TS -32.6999 183.867 main 735 705 P______IP___P_ SH221997 -32.8649 -176.110 35 0 -32.5349 -176.157 -1 992 -32.5349 -176.157 30 992 -32.8649 -176.110 TC 35 11 157
1997021S16172 1997 8 SP MM FREDA 1997-02-02 06:00:00 TS -33.2000 184.150 30 992 wellington main 705 694 O_______O___O_ jtwc_sh SH221997 -33.4000 -175.700 35 0 -33.0000 -176.000 -1 992 -33.0000 -176.000 30 992 -33.4000 -175.700 TC 35 11 151
1997021S16172 1997 8 SP MM FREDA 1997-02-02 09:00:00 TS -33.6663 184.507 main 693 685 P______IP___P_ SH221997 -33.8927 -175.207 35 0 -33.4399 -175.779 -1 991 -33.4399 -175.779 30 991 -33.8927 -175.207 TC 35 12 147
1997021S16172 1997 8 SP MM FREDA 1997-02-02 12:00:00 TS -34.2133 184.927 30 991 wellington main 686 678 O_______O___O_ jtwc_sh SH221997 -34.4000 -174.700 35 0 -34.0000 -175.500 -1 991 -34.0000 -175.500 30 991 -34.4000 -174.700 TC 35 14 151
1997021S16172 1997 8 SP MM FREDA 1997-02-02 15:00:00 TS -34.8874 185.336 main 675 669 P______IP___P_ SH221997 -34.9622 -174.284 35 0 -34.7828 -175.167 -1 990 -34.7900 -175.172 30 990 -34.9622 -174.284 TC 35 16 156
1997021S16172 1997 8 SP MM FREDA 1997-02-02 18:00:00 TS -35.6455 185.691 30 990 wellington main 673 669 O_______O___O_ jtwc_sh SH221997 -35.6000 -173.900 35 0 -35.7000 -174.800 -1 990 -35.7000 -174.800 30 990 -35.6000 -173.900 TC 35 17 159
1997021S16172 1997 8 SP MM FREDA 1997-02-02 21:00:00 TS -36.4329 186.072 main 679 674 P_______P___P_ SH221997 -36.3253 -173.507 35 0 -1 -36.5404 -174.349 30 990 -36.3253 -173.507 TC 35 18 164
1997021S16172 1997 8 SP MM FREDA 1997-02-03 00:00:00 TS -37.3667 186.300 30 990 wellington main 677 662 O_______O___O_ jtwc_sh SH221997 -37.1000 -173.100 35 0 -37.5000 -174.000 30 990 -37.1000 -173.100 TC 35 23 179
1997021S16172 1997 8 SP MM FREDA 1997-02-03 03:00:00 NR -38.7344 186.134 main 662 662 ________P_____ SH221997 -1 -38.7344 -173.866 30 990 TC 26 185
1997021S16172 1997 8 SP MM FREDA 1997-02-03 06:00:00 NR -40.0000 186.000 30 990 wellington main 681 678 ________O_____ -1 -40.0000 -174.000 30 990 24 190
1997021S16172 1997 8 SP MM FREDA 1997-02-03 09:00:00 NR -41.0978 185.578 main 681 666 ________P_____ -1 -41.0978 -174.422 30 990 21 201
1997021S16172 1997 8 SP MM FREDA 1997-02-03 12:00:00 NR -42.0000 185.000 30 990 wellington main 668 657 ________O_____ -1 -42.0000 -175.000 30 990 17 209
1997021S16172 1997 8 SP MM FREDA 1997-02-03 15:00:00 NR -42.6151 184.461 main 663 655 ________P_____ -1 -42.6151 -175.539 30 989 14 212
1997021S16172 1997 8 SP MM FREDA 1997-02-03 18:00:00 NR -43.2000 184.000 30 988 wellington main 667 667 ________O_____ -1 -43.2000 -176.000 30 988 16 201
1997021S16172 1997 8 SP MM FREDA 1997-02-03 21:00:00 NR -44.0773 183.675 main 705 702 ________P_____ -1 -44.0773 -176.325 30 988 18 191
1997021S16172 1997 8 SP MM FREDA 1997-02-04 00:00:00 NR -45.0000 183.500 30 989 wellington main 738 738 ________O_____ -1 -45.0000 -176.500 30 989 17 185
1997021S16172 1997 8 SP MM FREDA 1997-02-04 03:00:00 NR -45.7873 183.446 main 783 783 ________P_____ -1 -45.7873 -176.554 30 989 15 0
1997021S16172 1997 8 SP MM FREDA 1997-02-04 06:00:00 NR -46.5000 183.500 30 990 wellington main 839 839 ________O_____ -1 -46.5000 -176.500 30 990 14 176
1997021S16172 1997 8 SP MM FREDA 1997-02-04 09:00:00 NR -47.1575 183.585 main 892 892 ________P_____ -1 -47.1575 -176.415 30 992 13 174
1997021S16172 1997 8 SP MM FREDA 1997-02-04 12:00:00 NR -47.8000 183.700 30 994 wellington main 924 924 ________O_____ -1 -47.8000 -176.300 30 994 13 175
1997021S16172 1997 8 SP MM FREDA 1997-02-04 15:00:00 NR -48.4621 183.736 main 958 958 ________P_____ -1 -48.4621 -176.264 30 993 14 175
1997021S16172 1997 8 SP MM FREDA 1997-02-04 18:00:00 NR -49.2000 183.900 30 992 wellington main 1009 1009 ________O_____ -1 -49.2000 -176.100 30 992 17 169
1997021S16172 1997 8 SP MM FREDA 1997-02-04 21:00:00 NR -50.1272 184.242 main 1082 1082 ________P_____ -1 -50.1272 -175.758 30 991 19 159
1997021S16172 1997 8 SP MM FREDA 1997-02-05 00:00:00 NR -51.0000 185.000 30 990 wellington main 1183 1183 ________O_____ -1 -51.0000 -175.000 30 990 19 136
1997021S16172 1997 8 SP MM FREDA 1997-02-05 03:00:00 NR -51.5263 186.399 main 1294 1294 ________P_____ -1 -51.5263 -173.601 30 990 21 118
1997021S16172 1997 8 SP MM FREDA 1997-02-05 06:00:00 NR -52.0000 188.000 30 990 wellington main 1416 1416 ________O_____ -1 -52.0000 -172.000 30 990 21 122
1997021S16172 1997 8 SP MM FREDA 1997-02-05 09:00:00 NR -52.6788 189.338 main 1527 1527 ________P_____ -1 -52.6788 -170.662 30 990 21 135
1997021S16172 1997 8 SP MM FREDA 1997-02-05 12:00:00 NR -53.5000 190.500 30 990 wellington main 1634 ________O_____ -1 -53.5000 -169.500 30 990 21 140

デジタル台風データ・検索

IBTrACS Databaseについて

本データベースは、米国NOAAが公開する1842年以降の世界の熱帯低気圧のベストトラックデータアーカイブInternational Best Track Archive for Climate Stewardship (IBTrACS)を、ウェブで閲覧しやすい形式に変換したものです。

最終更新日:2021-11-26